createdAt,value
2023-04-09T00:00:13.788Z,1016.24
2023-04-09T00:01:13.755Z,1016.20
2023-04-09T00:02:13.950Z,1016.18
2023-04-09T00:03:13.902Z,1016.16
2023-04-09T00:04:13.786Z,1016.20
2023-04-09T00:05:13.721Z,1016.16
2023-04-09T00:06:13.746Z,1016.19
2023-04-09T00:07:13.714Z,1016.25
2023-04-09T00:08:13.770Z,1016.20
2023-04-09T00:09:13.691Z,1016.18
2023-04-09T00:10:13.683Z,1016.26
2023-04-09T00:11:13.675Z,1016.20
2023-04-09T00:12:13.690Z,1016.27
2023-04-09T00:13:13.801Z,1016.19
2023-04-09T00:14:13.626Z,1016.17
2023-04-09T00:15:24.077Z,1016.23
2023-04-09T00:16:14.693Z,1016.16
2023-04-09T00:17:13.604Z,1016.18
2023-04-09T00:18:13.651Z,1016.19
2023-04-09T00:19:13.589Z,1016.17
2023-04-09T00:20:13.569Z,1016.21
2023-04-09T00:21:13.563Z,1016.19
2023-04-09T00:22:13.545Z,1016.22
2023-04-09T00:23:13.585Z,1016.17
2023-04-09T00:24:13.522Z,1016.20
2023-04-09T00:25:13.523Z,1016.17
2023-04-09T00:26:13.516Z,1016.19
2023-04-09T00:27:13.501Z,1016.18
2023-04-09T00:28:13.566Z,1016.19
2023-04-09T00:29:13.507Z,1016.14
2023-04-09T00:30:13.488Z,1016.17
2023-04-09T00:31:13.510Z,1016.12
2023-04-09T00:32:13.462Z,1016.11
2023-04-09T00:33:13.508Z,1016.15
2023-04-09T00:34:13.444Z,1016.10
2023-04-09T00:35:13.432Z,1016.12
2023-04-09T00:36:13.498Z,1016.12
2023-04-09T00:37:13.399Z,1016.10
2023-04-09T00:38:13.469Z,1016.11
2023-04-09T00:39:13.374Z,1016.10
2023-04-09T00:40:13.375Z,1016.09
2023-04-09T00:41:13.353Z,1016.14
2023-04-09T00:42:13.336Z,1016.08
2023-04-09T00:43:13.401Z,1016.07
2023-04-09T00:44:13.302Z,1016.02
2023-04-09T00:45:13.317Z,1016.02
2023-04-09T00:46:13.412Z,1016.05
2023-04-09T00:47:13.290Z,1015.99
2023-04-09T00:48:13.290Z,1016.08
2023-04-09T00:49:13.343Z,1016.03
2023-04-09T00:50:13.259Z,1016.01
2023-04-09T00:51:13.274Z,1016.01
2023-04-09T00:52:13.256Z,1015.96
2023-04-09T00:53:13.216Z,1015.97
2023-04-09T00:54:13.279Z,1015.94
2023-04-09T00:55:13.224Z,1015.95
2023-04-09T00:56:13.204Z,1015.98
2023-04-09T00:57:13.186Z,1015.97
2023-04-09T00:58:13.170Z,1015.98
2023-04-09T00:59:13.246Z,1015.97
2023-04-09T01:00:13.190Z,1016.00
2023-04-09T01:01:13.191Z,1016.01
2023-04-09T01:02:13.276Z,1015.95
2023-04-09T01:03:13.181Z,1015.97
2023-04-09T01:04:13.174Z,1015.96
2023-04-09T01:05:13.097Z,1016.00
2023-04-09T01:06:13.097Z,1016.01
2023-04-09T01:07:13.156Z,1015.98
2023-04-09T01:08:13.125Z,1015.95
2023-04-09T01:09:13.109Z,1015.92
2023-04-09T01:10:13.046Z,1015.94
2023-04-09T01:11:13.035Z,1015.93
2023-04-09T01:12:13.034Z,1015.91
2023-04-09T01:13:13.010Z,1015.96
2023-04-09T01:14:13.069Z,1015.99
2023-04-09T01:15:13.060Z,1015.96
2023-04-09T01:16:13.054Z,1015.85
2023-04-09T01:17:12.989Z,1015.96
2023-04-09T01:18:13.004Z,1015.91
2023-04-09T01:19:12.958Z,1015.89
2023-04-09T01:20:13.006Z,1015.93
2023-04-09T01:21:12.951Z,1015.98
2023-04-09T01:22:12.910Z,1015.97
2023-04-09T01:23:12.916Z,1015.99
2023-04-09T01:24:12.897Z,1016.01
2023-04-09T01:25:12.894Z,1015.90
2023-04-09T01:26:12.933Z,1015.94
2023-04-09T01:27:12.861Z,1015.93
2023-04-09T01:28:12.847Z,1015.93
2023-04-09T01:29:12.845Z,1015.93
2023-04-09T01:30:12.839Z,1015.91
2023-04-09T01:31:12.981Z,1016.01
2023-04-09T01:32:12.805Z,1015.94
2023-04-09T01:33:12.825Z,1015.91
2023-04-09T01:34:12.788Z,1015.96
2023-04-09T01:35:12.787Z,1015.98
2023-04-09T01:36:12.892Z,1015.95
2023-04-09T01:37:12.762Z,1015.97
2023-04-09T01:38:12.774Z,1015.97
2023-04-09T01:39:12.734Z,1015.94
2023-04-09T01:40:12.744Z,1015.95
2023-04-09T01:41:12.812Z,1015.94
2023-04-09T01:42:12.703Z,1015.99
2023-04-09T01:43:12.688Z,1015.96
2023-04-09T01:44:12.753Z,1016.00
2023-04-09T01:45:12.677Z,1015.95
2023-04-09T01:46:12.724Z,1015.96
2023-04-09T01:47:12.655Z,1015.98
2023-04-09T01:48:12.667Z,1016.00
2023-04-09T01:49:12.713Z,1016.03
2023-04-09T01:50:12.625Z,1016.05
2023-04-09T01:51:12.614Z,1016.06
2023-04-09T01:52:12.622Z,1015.98
2023-04-09T01:53:12.656Z,1015.97
2023-04-09T01:54:12.652Z,1016.03
2023-04-09T01:55:12.583Z,1016.01
2023-04-09T01:56:12.581Z,1016.02
2023-04-09T01:57:12.577Z,1016.00
2023-04-09T01:58:12.536Z,1016.02
2023-04-09T01:59:12.598Z,1016.04
2023-04-09T02:00:12.514Z,1015.96
2023-04-09T02:01:12.549Z,1015.99
2023-04-09T02:02:12.628Z,1015.99
2023-04-09T02:03:12.602Z,1015.95
2023-04-09T02:04:12.490Z,1015.96
2023-04-09T02:05:12.484Z,1015.97
2023-04-09T02:06:12.456Z,1015.94
2023-04-09T02:07:12.446Z,1015.97
2023-04-09T02:08:12.812Z,1015.91
2023-04-09T02:09:12.448Z,1015.87
2023-04-09T02:10:12.425Z,1015.88
2023-04-09T02:11:12.413Z,1015.91
2023-04-09T02:12:12.558Z,1015.91
2023-04-09T02:13:12.377Z,1015.92
2023-04-09T02:14:12.390Z,1015.92
2023-04-09T02:15:12.382Z,1015.85
2023-04-09T02:16:12.384Z,1015.86
2023-04-09T02:17:12.339Z,1015.84
2023-04-09T02:18:12.381Z,1015.84
2023-04-09T02:19:12.370Z,1015.83
2023-04-09T02:20:12.317Z,1015.87
2023-04-09T02:21:12.336Z,1015.82
2023-04-09T02:22:12.293Z,1015.85
2023-04-09T02:23:12.276Z,1015.82
2023-04-09T02:24:12.317Z,1015.87
2023-04-09T02:25:12.262Z,1015.85
2023-04-09T02:26:12.246Z,1015.86
2023-04-09T02:27:12.246Z,1015.85
2023-04-09T02:28:12.223Z,1015.78
2023-04-09T02:29:12.259Z,1015.79
2023-04-09T02:30:12.231Z,1015.79
2023-04-09T02:31:12.277Z,1015.84
2023-04-09T02:32:12.186Z,1015.79
2023-04-09T02:33:12.179Z,1015.81
2023-04-09T02:34:12.168Z,1015.77
2023-04-09T02:35:12.166Z,1015.77
2023-04-09T02:36:12.238Z,1015.75
2023-04-09T02:37:13.160Z,1015.77
2023-04-09T02:38:12.114Z,1015.78
2023-04-09T02:39:12.093Z,1015.79
2023-04-09T02:40:12.100Z,1015.77
2023-04-09T02:41:12.149Z,1015.79
2023-04-09T02:42:12.063Z,1015.82
2023-04-09T02:43:12.173Z,1015.77
2023-04-09T02:44:12.060Z,1015.74
2023-04-09T02:45:12.045Z,1015.71
2023-04-09T02:46:12.049Z,1015.77
2023-04-09T02:47:12.050Z,1015.71
2023-04-09T02:48:12.085Z,1015.67
2023-04-09T02:49:12.000Z,1015.71
2023-04-09T02:50:11.998Z,1015.69
2023-04-09T02:51:12.055Z,1015.69
2023-04-09T02:52:11.977Z,1015.66
2023-04-09T02:53:11.984Z,1015.66
2023-04-09T02:54:11.957Z,1015.66
2023-04-09T02:55:11.979Z,1015.67
2023-04-09T02:56:11.985Z,1015.62
2023-04-09T02:57:11.933Z,1015.64
2023-04-09T02:58:11.912Z,1015.61
2023-04-09T02:59:11.914Z,1015.61
2023-04-09T03:00:11.910Z,1015.63
2023-04-09T03:01:11.962Z,1015.59
2023-04-09T03:02:12.092Z,1015.61
2023-04-09T03:03:12.001Z,1015.56
2023-04-09T03:04:11.936Z,1015.57
2023-04-09T03:05:11.831Z,1015.57
2023-04-09T03:06:11.837Z,1015.59
2023-04-09T03:07:11.881Z,1015.60
2023-04-09T03:08:11.809Z,1015.57
2023-04-09T03:09:11.823Z,1015.54
2023-04-09T03:10:11.786Z,1015.53
2023-04-09T03:11:11.866Z,1015.57
2023-04-09T03:12:11.756Z,1015.53
2023-04-09T03:13:11.761Z,1015.55
2023-04-09T03:14:11.756Z,1015.57
2023-04-09T03:15:11.766Z,1015.57
2023-04-09T03:16:11.820Z,1015.52
2023-04-09T03:17:11.751Z,1015.49
2023-04-09T03:18:11.721Z,1015.53
2023-04-09T03:19:11.698Z,1015.54
2023-04-09T03:20:11.683Z,1015.50
2023-04-09T03:21:14.755Z,1015.52
2023-04-09T03:22:11.678Z,1015.52
2023-04-09T03:23:11.687Z,1015.50
2023-04-09T03:24:11.652Z,1015.48
2023-04-09T03:25:11.669Z,1015.45
2023-04-09T03:26:11.675Z,1015.54
2023-04-09T03:27:11.687Z,1015.43
2023-04-09T03:28:11.608Z,1015.44
2023-04-09T03:29:11.613Z,1015.50
2023-04-09T03:30:11.585Z,1015.41
2023-04-09T03:31:11.594Z,1015.45
2023-04-09T03:32:11.571Z,1015.51
2023-04-09T03:33:11.630Z,1015.43
2023-04-09T03:34:11.536Z,1015.43
2023-04-09T03:35:11.526Z,1015.41
2023-04-09T03:36:11.525Z,1015.39
2023-04-09T03:37:11.513Z,1015.38
2023-04-09T03:38:11.521Z,1015.46
2023-04-09T03:39:11.552Z,1015.37
2023-04-09T03:40:11.478Z,1015.42
2023-04-09T03:41:11.502Z,1015.34
2023-04-09T03:42:11.466Z,1015.38
2023-04-09T03:43:11.459Z,1015.33
2023-04-09T03:44:11.516Z,1015.34
2023-04-09T03:45:11.440Z,1015.32
2023-04-09T03:46:11.470Z,1015.31
2023-04-09T03:47:11.403Z,1015.27
2023-04-09T03:48:11.403Z,1015.27
2023-04-09T03:49:11.443Z,1015.26
2023-04-09T03:50:11.386Z,1015.28
2023-04-09T03:51:11.366Z,1015.24
2023-04-09T03:52:11.347Z,1015.25
2023-04-09T03:53:11.350Z,1015.30
2023-04-09T03:54:11.397Z,1015.32
2023-04-09T03:55:11.332Z,1015.28
2023-04-09T03:56:11.301Z,1015.30
2023-04-09T03:57:11.317Z,1015.26
2023-04-09T03:58:11.425Z,1015.23
2023-04-09T03:59:11.340Z,1015.26
2023-04-09T04:00:11.269Z,1015.23
2023-04-09T04:01:11.253Z,1015.26
2023-04-09T04:02:11.334Z,1015.28
2023-04-09T04:03:11.557Z,1015.19
2023-04-09T04:04:11.382Z,1015.21
2023-04-09T04:05:11.212Z,1015.22
2023-04-09T04:06:11.240Z,1015.23
2023-04-09T04:07:11.193Z,1015.26
2023-04-09T04:08:11.246Z,1015.29
2023-04-09T04:09:11.200Z,1015.34
2023-04-09T04:10:11.185Z,1015.27
2023-04-09T04:11:11.162Z,1015.30
2023-04-09T04:12:11.191Z,1015.37
2023-04-09T04:13:11.181Z,1015.24
2023-04-09T04:14:11.186Z,1015.27
2023-04-09T04:15:11.116Z,1015.33
2023-04-09T04:16:11.134Z,1015.34
2023-04-09T04:17:11.147Z,1015.34
2023-04-09T04:18:11.146Z,1015.33
2023-04-09T04:19:11.122Z,1015.32
2023-04-09T04:20:11.092Z,1015.34
2023-04-09T04:21:11.051Z,1015.27
2023-04-09T04:22:11.106Z,1015.36
2023-04-09T04:23:11.102Z,1015.31
2023-04-09T04:24:11.014Z,1015.35
2023-04-09T04:25:11.004Z,1015.30
2023-04-09T04:26:11.015Z,1015.33
2023-04-09T04:27:10.995Z,1015.32
2023-04-09T04:28:11.054Z,1015.40
2023-04-09T04:29:10.992Z,1015.35
2023-04-09T04:30:10.946Z,1015.35
2023-04-09T04:31:10.977Z,1015.37
2023-04-09T04:32:10.951Z,1015.33
2023-04-09T04:33:10.931Z,1015.33
2023-04-09T04:34:11.003Z,1015.35
2023-04-09T04:35:10.920Z,1015.37
2023-04-09T04:36:10.912Z,1015.34
2023-04-09T04:37:10.952Z,1015.33
2023-04-09T04:38:10.886Z,1015.38
2023-04-09T04:39:10.945Z,1015.40
2023-04-09T04:40:10.866Z,1015.39
2023-04-09T04:41:10.854Z,1015.37
2023-04-09T04:42:10.847Z,1015.39
2023-04-09T04:43:10.887Z,1015.43
2023-04-09T04:44:10.870Z,1015.39
2023-04-09T04:45:10.811Z,1015.42
2023-04-09T04:46:10.808Z,1015.41
2023-04-09T04:47:10.773Z,1015.39
2023-04-09T04:48:10.834Z,1015.42
2023-04-09T04:49:10.761Z,1015.44
2023-04-09T04:50:10.747Z,1015.39
2023-04-09T04:51:10.733Z,1015.40
2023-04-09T04:52:10.745Z,1015.45
2023-04-09T04:53:10.776Z,1015.45
2023-04-09T04:54:10.774Z,1015.42
2023-04-09T04:55:10.719Z,1015.44
2023-04-09T04:56:10.698Z,1015.44
2023-04-09T04:57:10.690Z,1015.41
2023-04-09T04:58:10.726Z,1015.48
2023-04-09T04:59:10.714Z,1015.38
2023-04-09T05:00:10.648Z,1015.44
2023-04-09T05:01:10.785Z,1015.40
2023-04-09T05:02:10.687Z,1015.39
2023-04-09T05:03:10.841Z,1015.42
2023-04-09T05:04:10.655Z,1015.38
2023-04-09T05:05:10.580Z,1015.39
2023-04-09T05:06:10.590Z,1015.35
2023-04-09T05:07:10.568Z,1015.36
2023-04-09T05:08:10.565Z,1015.38
2023-04-09T05:09:10.623Z,1015.39
2023-04-09T05:10:10.550Z,1015.41
2023-04-09T05:11:10.534Z,1015.36
2023-04-09T05:12:10.516Z,1015.38
2023-04-09T05:13:10.521Z,1015.37
2023-04-09T05:14:10.568Z,1015.34
2023-04-09T05:15:10.487Z,1015.35
2023-04-09T05:16:10.516Z,1015.32
2023-04-09T05:17:10.490Z,1015.34
2023-04-09T05:18:10.482Z,1015.34
2023-04-09T05:19:10.445Z,1015.35
2023-04-09T05:20:10.503Z,1015.35
2023-04-09T05:21:10.446Z,1015.35
2023-04-09T05:22:10.428Z,1015.36
2023-04-09T05:23:10.428Z,1015.36
2023-04-09T05:24:10.455Z,1015.35
2023-04-09T05:25:10.380Z,1015.39
2023-04-09T05:26:10.365Z,1015.38
2023-04-09T05:27:10.355Z,1015.36
2023-04-09T05:28:10.363Z,1015.42
2023-04-09T05:29:10.514Z,1015.35
2023-04-09T05:30:10.371Z,1015.30
2023-04-09T05:31:10.373Z,1015.40
2023-04-09T05:32:10.530Z,1015.40
2023-04-09T05:33:10.316Z,1015.38
2023-04-09T05:34:10.303Z,1015.42
2023-04-09T05:35:10.278Z,1015.48
2023-04-09T05:36:10.303Z,1015.48
2023-04-09T05:37:10.334Z,1015.45
2023-04-09T05:38:10.260Z,1015.42
2023-04-09T05:39:10.230Z,1015.45
2023-04-09T05:40:10.310Z,1015.45
2023-04-09T05:41:10.237Z,1015.46
2023-04-09T05:42:10.222Z,1015.49
2023-04-09T05:43:10.202Z,1015.47
2023-04-09T05:44:10.203Z,1015.51
2023-04-09T05:45:10.253Z,1015.51
2023-04-09T05:46:10.271Z,1015.52
2023-04-09T05:47:10.183Z,1015.48
2023-04-09T05:48:10.157Z,1015.49
2023-04-09T05:49:10.153Z,1015.49
2023-04-09T05:50:10.194Z,1015.54
2023-04-09T05:51:10.146Z,1015.56
2023-04-09T05:52:10.108Z,1015.56
2023-04-09T05:53:10.102Z,1015.55
2023-04-09T05:54:10.103Z,1015.52
2023-04-09T05:55:10.138Z,1015.55
2023-04-09T05:56:10.137Z,1015.54
2023-04-09T05:57:10.091Z,1015.56
2023-04-09T05:58:10.107Z,1015.60
2023-04-09T05:59:10.033Z,1015.56
2023-04-09T06:00:10.028Z,1015.59
2023-04-09T06:01:10.135Z,1015.55
2023-04-09T06:02:10.141Z,1015.56
2023-04-09T06:03:10.176Z,1015.64
2023-04-09T06:04:10.182Z,1015.57
2023-04-09T06:05:09.985Z,1015.57
2023-04-09T06:06:10.036Z,1015.63
2023-04-09T06:07:09.964Z,1015.54
2023-04-09T06:08:10.005Z,1015.57
2023-04-09T06:09:09.939Z,1015.60
2023-04-09T06:10:09.915Z,1015.56
2023-04-09T06:11:09.916Z,1015.58
2023-04-09T06:12:09.900Z,1015.57
2023-04-09T06:13:09.942Z,1015.61
2023-04-09T06:14:09.867Z,1015.61
2023-04-09T06:15:09.874Z,1015.61
2023-04-09T06:16:09.894Z,1015.62
2023-04-09T06:17:09.856Z,1015.61
2023-04-09T06:18:09.910Z,1015.60
2023-04-09T06:19:09.853Z,1015.68
2023-04-09T06:20:09.842Z,1015.66
2023-04-09T06:21:09.819Z,1015.70
2023-04-09T06:22:09.803Z,1015.64
2023-04-09T06:23:09.844Z,1015.64
2023-04-09T06:24:09.772Z,1015.62
2023-04-09T06:25:09.801Z,1015.70
2023-04-09T06:26:09.765Z,1015.70
2023-04-09T06:27:09.843Z,1015.74
2023-04-09T06:28:09.788Z,1015.73
2023-04-09T06:29:09.703Z,1015.73
2023-04-09T06:30:09.735Z,1015.79
2023-04-09T06:31:09.724Z,1015.74
2023-04-09T06:32:09.737Z,1015.77
2023-04-09T06:33:09.736Z,1015.76
2023-04-09T06:34:09.724Z,1015.76
2023-04-09T06:35:10.996Z,1015.78
2023-04-09T06:36:09.688Z,1015.78
2023-04-09T06:37:09.661Z,1015.79
2023-04-09T06:38:09.707Z,1015.81
2023-04-09T06:39:09.888Z,1015.85
2023-04-09T06:40:09.607Z,1015.88
2023-04-09T06:41:09.604Z,1015.78
2023-04-09T06:42:09.586Z,1015.84
2023-04-09T06:43:09.595Z,1015.85
2023-04-09T06:44:09.635Z,1015.87
2023-04-09T06:45:09.642Z,1015.85
2023-04-09T06:46:09.554Z,1015.82
2023-04-09T06:47:09.554Z,1015.81
2023-04-09T06:48:09.541Z,1015.85
2023-04-09T06:49:09.566Z,1015.80
2023-04-09T06:50:09.577Z,1015.85
2023-04-09T06:51:09.503Z,1015.87
2023-04-09T06:52:09.471Z,1015.90
2023-04-09T06:53:09.539Z,1015.91
2023-04-09T06:54:09.500Z,1015.85
2023-04-09T06:55:09.508Z,1015.89
2023-04-09T06:56:09.516Z,1015.89
2023-04-09T06:57:09.433Z,1015.92
2023-04-09T06:58:09.411Z,1015.95
2023-04-09T06:59:09.406Z,1015.90
2023-04-09T07:00:09.401Z,1015.96
2023-04-09T07:01:09.474Z,1015.94
2023-04-09T07:02:09.545Z,1015.94
2023-04-09T07:03:09.702Z,1015.96
2023-04-09T07:04:09.437Z,1015.93
2023-04-09T07:05:09.375Z,1015.92
2023-04-09T07:06:09.412Z,1016.01
2023-04-09T07:07:09.492Z,1016.06
2023-04-09T07:08:09.411Z,1015.99
2023-04-09T07:09:09.311Z,1016.00
2023-04-09T07:10:09.313Z,1016.02
2023-04-09T07:11:09.292Z,1016.00
2023-04-09T07:12:09.441Z,1016.06
2023-04-09T07:13:09.332Z,1016.04
2023-04-09T07:14:09.244Z,1016.03
2023-04-09T07:15:09.238Z,1016.03
2023-04-09T07:16:09.277Z,1016.00
2023-04-09T07:17:09.209Z,1016.03
2023-04-09T07:18:09.452Z,1015.98
2023-04-09T07:19:09.207Z,1015.93
2023-04-09T07:20:09.193Z,1015.97
2023-04-09T07:21:09.182Z,1015.95
2023-04-09T07:22:09.161Z,1015.99
2023-04-09T07:23:09.228Z,1016.01
2023-04-09T07:24:09.132Z,1015.99
2023-04-09T07:25:09.147Z,1016.01
2023-04-09T07:26:09.126Z,1016.01
2023-04-09T07:27:09.100Z,1016.02
2023-04-09T07:28:09.161Z,1016.03
2023-04-09T07:29:09.115Z,1016.07
2023-04-09T07:30:09.087Z,1016.07
2023-04-09T07:31:09.110Z,1016.08
2023-04-09T07:32:09.115Z,1016.11
2023-04-09T07:33:09.097Z,1016.12
2023-04-09T07:34:09.033Z,1016.06
2023-04-09T07:35:10.049Z,1016.09
2023-04-09T07:36:09.154Z,1016.03
2023-04-09T07:37:09.095Z,1015.99
2023-04-09T07:38:09.011Z,1016.03
2023-04-09T07:39:09.020Z,1016.01
2023-04-09T07:40:08.997Z,1016.06
2023-04-09T07:41:08.990Z,1016.05
2023-04-09T07:42:09.025Z,1015.99
2023-04-09T07:43:09.013Z,1016.07
2023-04-09T07:44:08.945Z,1016.08
2023-04-09T07:45:08.972Z,1016.08
2023-04-09T07:46:08.929Z,1016.02
2023-04-09T07:47:09.214Z,1016.03
2023-04-09T07:48:08.976Z,1016.08
2023-04-09T07:49:08.906Z,1016.02
2023-04-09T07:50:08.874Z,1016.03
2023-04-09T07:51:08.869Z,1016.10
2023-04-09T07:52:08.885Z,1016.06
2023-04-09T07:53:08.902Z,1016.09
2023-04-09T07:54:08.836Z,1016.11
2023-04-09T07:55:08.816Z,1016.12
2023-04-09T07:56:08.939Z,1016.14
2023-04-09T07:57:08.928Z,1016.09
2023-04-09T07:58:08.987Z,1016.08
2023-04-09T07:59:08.803Z,1016.07
2023-04-09T08:00:08.768Z,1016.08
2023-04-09T08:01:08.750Z,1016.09
2023-04-09T08:02:08.894Z,1016.07
2023-04-09T08:03:08.962Z,1016.12
2023-04-09T08:04:08.948Z,1016.06
2023-04-09T08:05:08.777Z,1016.08
2023-04-09T08:06:08.726Z,1016.08
2023-04-09T08:07:08.726Z,1016.16
2023-04-09T08:08:08.752Z,1016.10
2023-04-09T08:09:08.714Z,1016.14
2023-04-09T08:10:08.683Z,1016.23
2023-04-09T08:11:08.662Z,1016.21
2023-04-09T08:12:08.650Z,1016.16
2023-04-09T08:13:10.214Z,1016.15
2023-04-09T08:14:08.648Z,1016.22
2023-04-09T08:15:08.700Z,1016.18
2023-04-09T08:16:08.689Z,1016.14
2023-04-09T08:17:08.611Z,1016.13
2023-04-09T08:18:08.689Z,1016.10
2023-04-09T08:19:08.570Z,1016.13
2023-04-09T08:20:08.633Z,1016.09
2023-04-09T08:21:08.557Z,1016.14
2023-04-09T08:22:08.559Z,1016.11
2023-04-09T08:23:08.536Z,1016.14
2023-04-09T08:24:08.526Z,1016.16
2023-04-09T08:25:08.595Z,1016.13
2023-04-09T08:26:08.511Z,1016.15
2023-04-09T08:27:08.496Z,1016.10
2023-04-09T08:28:08.488Z,1016.13
2023-04-09T08:29:08.484Z,1016.10
2023-04-09T08:30:08.517Z,1016.09
2023-04-09T08:31:08.436Z,1016.07
2023-04-09T08:32:08.495Z,1016.07
2023-04-09T08:33:08.444Z,1016.00
2023-04-09T08:34:08.425Z,1016.02
2023-04-09T08:35:08.493Z,1016.08
2023-04-09T08:36:08.409Z,1016.05
2023-04-09T08:37:08.380Z,1016.02
2023-04-09T08:38:08.371Z,1016.01
2023-04-09T08:39:08.363Z,1016.06
2023-04-09T08:40:08.400Z,1016.04
2023-04-09T08:41:08.343Z,1016.07
2023-04-09T08:42:08.339Z,1016.07
2023-04-09T08:43:08.370Z,1016.06
2023-04-09T08:44:08.322Z,1016.04
2023-04-09T08:45:08.345Z,1015.99
2023-04-09T08:46:08.392Z,1016.01
2023-04-09T08:47:08.290Z,1016.08
2023-04-09T08:48:08.346Z,1015.99
2023-04-09T08:49:08.276Z,1016.06
2023-04-09T08:50:08.312Z,1016.01
2023-04-09T08:51:08.303Z,1015.98
2023-04-09T08:52:08.273Z,1016.07
2023-04-09T08:53:08.235Z,1016.04
2023-04-09T08:54:08.221Z,1016.02
2023-04-09T08:55:08.218Z,1015.98
2023-04-09T08:56:08.204Z,1015.93
2023-04-09T08:57:08.227Z,1015.94
2023-04-09T08:58:08.155Z,1015.94
2023-04-09T08:59:08.141Z,1015.97
2023-04-09T09:00:08.166Z,1015.91
2023-04-09T09:01:08.168Z,1015.87
2023-04-09T09:02:08.333Z,1015.92
2023-04-09T09:03:08.257Z,1015.87
2023-04-09T09:04:08.208Z,1015.89
2023-04-09T09:05:08.107Z,1015.86
2023-04-09T09:06:08.084Z,1015.87
2023-04-09T09:07:08.067Z,1015.87
2023-04-09T09:08:08.081Z,1015.83
2023-04-09T09:09:08.105Z,1015.84
2023-04-09T09:10:08.036Z,1015.79
2023-04-09T09:11:08.013Z,1015.79
2023-04-09T09:12:08.051Z,1015.81
2023-04-09T09:13:08.013Z,1015.81
2023-04-09T09:14:08.052Z,1015.81
2023-04-09T09:15:08.044Z,1015.78
2023-04-09T09:16:07.964Z,1015.80
2023-04-09T09:17:08.118Z,1015.77
2023-04-09T09:18:07.964Z,1015.82
2023-04-09T09:19:07.996Z,1015.74
2023-04-09T09:20:07.986Z,1015.75
2023-04-09T09:21:07.917Z,1015.78
2023-04-09T09:22:07.919Z,1015.76
2023-04-09T09:23:07.915Z,1015.73
2023-04-09T09:24:07.911Z,1015.73
2023-04-09T09:25:07.942Z,1015.78
2023-04-09T09:26:07.925Z,1015.72
2023-04-09T09:27:07.839Z,1015.70
2023-04-09T09:28:07.888Z,1015.71
2023-04-09T09:29:07.828Z,1015.73
2023-04-09T09:30:07.868Z,1015.72
2023-04-09T09:31:07.924Z,1015.68
2023-04-09T09:32:07.805Z,1015.68
2023-04-09T09:33:07.797Z,1015.61
2023-04-09T09:34:07.773Z,1015.64
2023-04-09T09:35:07.834Z,1015.67
2023-04-09T09:36:07.854Z,1015.67
2023-04-09T09:37:08.047Z,1015.68
2023-04-09T09:38:07.743Z,1015.67
2023-04-09T09:39:07.756Z,1015.68
2023-04-09T09:40:07.827Z,1015.62
2023-04-09T09:41:07.773Z,1015.67
2023-04-09T09:42:07.763Z,1015.61
2023-04-09T09:43:07.681Z,1015.59
2023-04-09T09:44:07.702Z,1015.57
2023-04-09T09:45:07.735Z,1015.66
2023-04-09T09:46:07.711Z,1015.56
2023-04-09T09:47:07.726Z,1015.62
2023-04-09T09:48:07.754Z,1015.65
2023-04-09T09:49:07.650Z,1015.64
2023-04-09T09:50:07.601Z,1015.61
2023-04-09T09:51:07.603Z,1015.61
2023-04-09T09:52:07.649Z,1015.55
2023-04-09T09:53:07.638Z,1015.57
2023-04-09T09:54:07.562Z,1015.58
2023-04-09T09:55:07.566Z,1015.55
2023-04-09T09:56:07.580Z,1015.56
2023-04-09T09:57:07.645Z,1015.54
2023-04-09T09:58:07.523Z,1015.50
2023-04-09T09:59:07.559Z,1015.51
2023-04-09T10:00:07.516Z,1015.47
2023-04-09T10:01:07.570Z,1015.53
2023-04-09T10:02:07.910Z,1015.50
2023-04-09T10:03:07.566Z,1015.52
2023-04-09T10:04:07.522Z,1015.44
2023-04-09T10:05:07.460Z,1015.49
2023-04-09T10:06:07.435Z,1015.47
2023-04-09T10:07:07.534Z,1015.48
2023-04-09T10:08:07.428Z,1015.43
2023-04-09T10:09:07.410Z,1015.41
2023-04-09T10:10:07.444Z,1015.38
2023-04-09T10:11:07.382Z,1015.41
2023-04-09T10:12:07.463Z,1015.41
2023-04-09T10:13:07.357Z,1015.40
2023-04-09T10:14:07.412Z,1015.42
2023-04-09T10:15:07.343Z,1015.39
2023-04-09T10:16:07.448Z,1015.39
2023-04-09T10:17:07.336Z,1015.43
2023-04-09T10:18:07.379Z,1015.37
2023-04-09T10:19:07.348Z,1015.38
2023-04-09T10:20:07.288Z,1015.33
2023-04-09T10:21:07.292Z,1015.34
2023-04-09T10:22:07.290Z,1015.33
2023-04-09T10:23:07.318Z,1015.31
2023-04-09T10:24:07.231Z,1015.21
2023-04-09T10:25:07.255Z,1015.18
2023-04-09T10:26:07.214Z,1015.13
2023-04-09T10:27:07.224Z,1015.17
2023-04-09T10:28:07.204Z,1015.20
2023-04-09T10:29:07.260Z,1015.15
2023-04-09T10:30:07.214Z,1015.17
2023-04-09T10:31:07.262Z,1015.14
2023-04-09T10:32:07.294Z,1015.13
2023-04-09T10:33:07.228Z,1015.18
2023-04-09T10:34:09.453Z,1015.13
2023-04-09T10:35:07.185Z,1015.08
2023-04-09T10:36:07.171Z,1015.04
2023-04-09T10:37:07.111Z,1015.08
2023-04-09T10:38:07.091Z,1015.06
2023-04-09T10:39:07.144Z,1015.01
2023-04-09T10:40:08.900Z,1015.01
2023-04-09T10:41:07.069Z,1014.99
2023-04-09T10:42:07.043Z,1014.92
2023-04-09T10:43:07.038Z,1014.94
2023-04-09T10:44:07.084Z,1014.89
2023-04-09T10:45:07.085Z,1014.91
2023-04-09T10:46:07.065Z,1014.89
2023-04-09T10:47:07.002Z,1014.92
2023-04-09T10:48:07.019Z,1014.91
2023-04-09T10:49:07.055Z,1014.88
2023-04-09T10:50:07.047Z,1014.93
2023-04-09T10:51:07.034Z,1014.95
2023-04-09T10:52:08.861Z,1014.92
2023-04-09T10:53:06.980Z,1014.89
2023-04-09T10:54:06.929Z,1014.92
2023-04-09T10:55:06.913Z,1014.92
2023-04-09T10:56:06.945Z,1014.89
2023-04-09T10:57:06.898Z,1014.91
2023-04-09T10:58:08.459Z,1014.89
2023-04-09T10:59:06.879Z,1014.88
2023-04-09T11:00:06.882Z,1014.84
2023-04-09T11:01:06.918Z,1014.82
2023-04-09T11:02:07.013Z,1014.79
2023-04-09T11:03:07.084Z,1014.79
2023-04-09T11:04:08.958Z,1014.81
2023-04-09T11:05:06.872Z,1014.83
2023-04-09T11:06:06.883Z,1014.78
2023-04-09T11:07:06.818Z,1014.79
2023-04-09T11:08:06.793Z,1014.76
2023-04-09T11:09:06.806Z,1014.76
2023-04-09T11:10:06.779Z,1014.76
2023-04-09T11:11:06.816Z,1014.78
2023-04-09T11:12:06.835Z,1014.78
2023-04-09T11:13:06.820Z,1014.74
2023-04-09T11:14:06.721Z,1014.76
2023-04-09T11:15:06.711Z,1014.72
2023-04-09T11:17:06.690Z,1014.76
2023-04-09T11:18:06.749Z,1014.69
2023-04-09T11:19:06.671Z,1014.68
2023-04-09T11:20:06.672Z,1014.68
2023-04-09T11:21:06.685Z,1014.68
2023-04-09T11:22:06.693Z,1014.71
2023-04-09T11:23:06.622Z,1014.65
2023-04-09T11:24:06.607Z,1014.64
2023-04-09T11:25:06.620Z,1014.71
2023-04-09T11:26:06.604Z,1014.67
2023-04-09T11:27:06.645Z,1014.66
2023-04-09T11:28:06.650Z,1014.65
2023-04-09T11:29:06.593Z,1014.61
2023-04-09T11:30:06.534Z,1014.66
2023-04-09T11:31:06.564Z,1014.63
2023-04-09T11:32:06.559Z,1014.65
2023-04-09T11:33:06.606Z,1014.67
2023-04-09T11:34:06.489Z,1014.66
2023-04-09T11:35:06.497Z,1014.58
2023-04-09T11:36:06.595Z,1014.60
2023-04-09T11:37:06.523Z,1014.68
2023-04-09T11:38:06.550Z,1014.67
2023-04-09T11:39:06.472Z,1014.64
2023-04-09T11:40:06.452Z,1014.71
2023-04-09T11:41:06.443Z,1014.65
2023-04-09T11:42:06.475Z,1014.61
2023-04-09T11:43:06.483Z,1014.56
2023-04-09T11:44:06.406Z,1014.55
2023-04-09T11:45:06.395Z,1014.52
2023-04-09T11:46:06.378Z,1014.54
2023-04-09T11:47:06.472Z,1014.58
2023-04-09T11:48:06.433Z,1014.60
2023-04-09T11:49:06.347Z,1014.54
2023-04-09T11:50:06.406Z,1014.49
2023-04-09T11:51:06.332Z,1014.58
2023-04-09T11:52:06.334Z,1014.58
2023-04-09T11:53:07.654Z,1014.53
2023-04-09T11:54:06.304Z,1014.54
2023-04-09T11:55:06.346Z,1014.49
2023-04-09T11:56:06.272Z,1014.52
2023-04-09T11:57:06.356Z,1014.50
2023-04-09T11:58:06.319Z,1014.43
2023-04-09T11:59:06.246Z,1014.46
2023-04-09T12:00:06.247Z,1014.44
2023-04-09T12:01:06.218Z,1014.43
2023-04-09T12:02:06.271Z,1014.45
2023-04-09T12:03:06.493Z,1014.43
2023-04-09T12:04:06.344Z,1014.47
2023-04-09T12:05:06.213Z,1014.47
2023-04-09T12:06:06.231Z,1014.42